createdAt,value
2019-02-18T00:00:41.844Z,4.10
2019-02-18T00:03:13.176Z,4.10
2019-02-18T00:05:41.848Z,4.10
2019-02-18T00:08:12.616Z,4.10
2019-02-18T00:10:41.768Z,4.10
2019-02-18T00:13:11.007Z,4.10
2019-02-18T00:15:40.152Z,4.10
2019-02-18T00:18:09.280Z,4.10
2019-02-18T00:20:38.431Z,4.10
2019-02-18T00:23:07.573Z,4.10
2019-02-18T00:25:36.808Z,4.10
2019-02-18T00:28:05.950Z,4.00
2019-02-18T00:30:36.801Z,4.00
2019-02-18T00:33:05.999Z,4.00
2019-02-18T00:35:35.145Z,4.00
2019-02-18T00:38:04.304Z,4.00
2019-02-18T00:40:33.424Z,3.90
2019-02-18T00:43:02.562Z,3.90
2019-02-18T00:45:31.708Z,3.90
2019-02-18T00:48:00.869Z,3.90
2019-02-18T00:50:30.003Z,3.80
2019-02-18T00:52:59.138Z,3.80
2019-02-18T00:55:28.263Z,3.80
2019-02-18T00:58:00.725Z,3.80
2019-02-18T01:00:29.847Z,3.80
2019-02-18T01:02:58.997Z,3.80
2019-02-18T01:05:29.028Z,3.80
2019-02-18T01:07:58.256Z,3.80
2019-02-18T01:10:27.386Z,3.80
2019-02-18T01:12:56.541Z,3.70
2019-02-18T01:15:25.660Z,3.70
2019-02-18T01:17:54.821Z,3.70
2019-02-18T01:20:23.948Z,3.70
2019-02-18T01:22:53.088Z,3.60
2019-02-18T01:25:22.232Z,3.60
2019-02-18T01:27:51.387Z,3.60
2019-02-18T01:30:20.509Z,3.60
2019-02-18T01:32:49.651Z,3.60
2019-02-18T01:35:18.799Z,3.60
2019-02-18T01:37:47.925Z,3.60
2019-02-18T01:40:17.062Z,3.50
2019-02-18T01:42:46.208Z,3.50
2019-02-18T01:45:15.424Z,3.50
2019-02-18T01:47:44.553Z,3.50
2019-02-18T01:50:15.423Z,3.50
2019-02-18T01:52:44.536Z,3.50
2019-02-18T01:55:14.266Z,3.50
2019-02-18T01:57:43.390Z,3.50
2019-02-18T02:00:15.869Z,3.50
2019-02-18T02:02:44.989Z,3.50
2019-02-18T02:05:15.746Z,3.50
2019-02-18T02:07:55.866Z,3.40
2019-02-18T02:10:21.176Z,3.40
2019-02-18T02:12:50.381Z,3.40
2019-02-18T02:15:26.873Z,3.40
2019-02-18T02:17:55.992Z,3.40
2019-02-18T02:20:25.154Z,3.40
2019-02-18T02:22:54.288Z,3.40
2019-02-18T02:25:23.525Z,3.40
2019-02-18T02:27:52.671Z,3.40
2019-02-18T02:30:21.861Z,3.40
2019-02-18T02:32:50.977Z,3.40
2019-02-18T02:35:20.610Z,3.40
2019-02-18T02:37:49.764Z,3.40
2019-02-18T02:40:18.908Z,3.30
2019-02-18T02:42:48.111Z,3.30
2019-02-18T02:45:17.248Z,3.30
2019-02-18T02:47:48.101Z,3.30
2019-02-18T02:50:17.258Z,3.30
2019-02-18T02:52:46.495Z,3.30
2019-02-18T02:55:15.711Z,3.20
2019-02-18T02:57:44.799Z,3.30
2019-02-18T03:00:17.217Z,3.20
2019-02-18T03:02:46.339Z,3.30
2019-02-18T03:05:15.528Z,3.20
2019-02-18T03:07:44.686Z,3.20
2019-02-18T03:10:14.454Z,3.20
2019-02-18T03:12:43.600Z,3.20
2019-02-18T03:15:15.543Z,3.20
2019-02-18T03:17:45.163Z,3.20
2019-02-18T03:20:14.279Z,3.20
2019-02-18T03:22:46.633Z,3.20
2019-02-18T03:25:28.181Z,3.10
2019-02-18T03:28:28.894Z,3.10
2019-02-18T03:31:02.921Z,3.10
2019-02-18T03:33:39.714Z,3.10
2019-02-18T03:36:08.832Z,3.00
2019-02-18T03:38:37.968Z,3.00
2019-02-18T03:41:07.121Z,3.00
2019-02-18T03:43:36.255Z,3.00
2019-02-18T03:46:05.355Z,3.00
2019-02-18T03:48:34.632Z,3.00
2019-02-18T03:51:03.821Z,2.90
2019-02-18T03:53:33.120Z,2.90
2019-02-18T03:56:02.276Z,2.90
2019-02-18T03:58:31.430Z,2.90
2019-02-18T04:01:00.577Z,2.90
2019-02-18T04:03:29.715Z,2.90
2019-02-18T04:05:58.836Z,2.90
2019-02-18T04:08:28.083Z,2.90
2019-02-18T04:10:57.183Z,2.90
2019-02-18T04:13:26.328Z,2.90
2019-02-18T04:15:55.488Z,2.90
2019-02-18T04:18:24.697Z,3.00
2019-02-18T04:20:53.814Z,3.00
2019-02-18T04:23:22.935Z,2.90
2019-02-18T04:25:52.078Z,2.90
2019-02-18T04:28:21.277Z,2.90
2019-02-18T04:30:50.420Z,2.90
2019-02-18T04:33:19.559Z,2.90
2019-02-18T04:35:48.675Z,2.90
2019-02-18T04:38:17.895Z,2.90
2019-02-18T04:40:47.029Z,2.90
2019-02-18T04:43:16.173Z,2.90
2019-02-18T04:45:45.355Z,2.90
2019-02-18T04:48:14.490Z,2.90
2019-02-18T04:50:43.640Z,2.90
2019-02-18T04:53:12.733Z,2.80
2019-02-18T04:55:41.879Z,2.90
2019-02-18T04:58:10.999Z,2.80
2019-02-18T05:00:41.798Z,2.80
2019-02-18T05:03:10.942Z,2.80
2019-02-18T05:05:40.068Z,2.80
2019-02-18T05:08:12.027Z,2.90
2019-02-18T05:10:41.241Z,2.90
2019-02-18T05:13:10.358Z,2.90
2019-02-18T05:15:40.332Z,2.90
2019-02-18T05:18:09.910Z,2.90
2019-02-18T05:20:39.062Z,2.80
2019-02-18T05:23:08.182Z,2.80
2019-02-18T05:25:37.335Z,2.80
2019-02-18T05:28:06.501Z,2.80
2019-02-18T05:30:35.621Z,2.70
2019-02-18T05:33:04.788Z,2.70
2019-02-18T05:35:33.883Z,2.70
2019-02-18T05:38:03.041Z,2.70
2019-02-18T05:40:32.223Z,2.70
2019-02-18T05:43:01.395Z,2.60
2019-02-18T05:45:30.505Z,2.60
2019-02-18T05:48:00.789Z,2.60
2019-02-18T05:50:29.880Z,2.60
2019-02-18T05:52:59.030Z,2.60
2019-02-18T05:55:30.865Z,2.60
2019-02-18T05:57:59.018Z,2.60
2019-02-18T06:00:28.120Z,2.60
2019-02-18T06:02:57.274Z,2.60
2019-02-18T06:05:26.429Z,2.60
2019-02-18T06:07:55.565Z,2.60
2019-02-18T06:10:24.702Z,2.60
2019-02-18T06:12:53.860Z,2.60
2019-02-18T06:15:23.056Z,2.60
2019-02-18T06:17:52.190Z,2.60
2019-02-18T06:20:21.325Z,2.50
2019-02-18T06:22:50.479Z,2.50
2019-02-18T06:25:19.611Z,2.50
2019-02-18T06:27:50.989Z,2.50
2019-02-18T06:30:19.595Z,2.50
2019-02-18T06:32:48.727Z,2.50
2019-02-18T06:35:17.857Z,2.50
2019-02-18T06:37:46.986Z,2.50
2019-02-18T06:40:16.140Z,2.50
2019-02-18T06:42:45.260Z,2.40
2019-02-18T06:45:31.388Z,2.40
2019-02-18T06:48:02.225Z,2.40
2019-02-18T06:50:31.375Z,2.40
2019-02-18T06:53:00.503Z,2.40
2019-02-18T06:55:29.647Z,2.40
2019-02-18T06:58:06.587Z,2.40
2019-02-18T07:00:51.030Z,2.40
2019-02-18T07:03:24.516Z,2.40
2019-02-18T07:06:01.137Z,2.40
2019-02-18T07:08:34.681Z,2.40
2019-02-18T07:11:11.362Z,2.40
2019-02-18T07:13:40.484Z,2.40
2019-02-18T07:16:09.624Z,2.40
2019-02-18T07:18:38.772Z,2.40
2019-02-18T07:21:07.918Z,2.40
2019-02-18T07:23:37.054Z,2.50
2019-02-18T07:26:06.219Z,2.50
2019-02-18T07:28:35.327Z,2.50
2019-02-18T07:31:04.460Z,2.50
2019-02-18T07:33:33.657Z,2.50
2019-02-18T07:36:02.819Z,2.50
2019-02-18T07:38:31.944Z,2.50
2019-02-18T07:41:01.080Z,2.50
2019-02-18T07:43:30.215Z,2.50
2019-02-18T07:45:59.361Z,2.50
2019-02-18T07:48:28.505Z,2.50
2019-02-18T07:50:57.726Z,2.50
2019-02-18T07:53:26.847Z,2.60
2019-02-18T07:55:56.014Z,2.60
2019-02-18T07:58:25.156Z,2.60
2019-02-18T08:00:54.349Z,2.70
2019-02-18T08:03:23.500Z,2.70
2019-02-18T08:05:52.643Z,2.70
2019-02-18T08:08:21.775Z,2.80
2019-02-18T08:10:50.905Z,2.80
2019-02-18T08:13:20.060Z,2.90
2019-02-18T08:15:49.199Z,2.90
2019-02-18T08:18:18.318Z,3.00
2019-02-18T08:20:47.451Z,3.00
2019-02-18T08:23:16.597Z,3.10
2019-02-18T08:25:45.720Z,3.20
2019-02-18T08:28:14.876Z,3.20
2019-02-18T08:30:43.994Z,3.30
2019-02-18T08:33:13.140Z,3.30
2019-02-18T08:35:42.283Z,3.40
2019-02-18T08:38:11.412Z,3.40
2019-02-18T08:40:40.553Z,3.50
2019-02-18T08:43:09.702Z,3.60
2019-02-18T08:45:38.842Z,3.60
2019-02-18T08:48:07.987Z,3.70
2019-02-18T08:50:37.126Z,3.70
2019-02-18T08:53:06.252Z,3.80
2019-02-18T08:55:35.384Z,3.80
2019-02-18T08:58:04.535Z,3.80
2019-02-18T09:00:33.655Z,3.90
2019-02-18T09:03:02.801Z,3.90
2019-02-18T09:05:31.923Z,4.00
2019-02-18T09:08:01.093Z,4.00
2019-02-18T09:10:33.650Z,4.10
2019-02-18T09:13:01.134Z,4.10
2019-02-18T09:15:32.941Z,4.20
2019-02-18T09:18:02.067Z,4.30
2019-02-18T09:20:31.222Z,4.30
2019-02-18T09:23:10.771Z,4.30
2019-02-18T09:25:43.371Z,4.40
2019-02-18T09:28:12.397Z,4.40
2019-02-18T09:30:43.195Z,4.50
2019-02-18T09:33:12.357Z,4.50
2019-02-18T09:35:41.531Z,4.60
2019-02-18T09:38:10.637Z,4.60
2019-02-18T09:40:44.624Z,4.70
2019-02-18T09:43:10.655Z,4.70
2019-02-18T09:45:39.807Z,4.80
2019-02-18T09:48:08.940Z,4.90
2019-02-18T09:50:38.061Z,4.90
2019-02-18T09:53:07.173Z,5.00
2019-02-18T09:55:36.462Z,5.00
2019-02-18T09:58:05.607Z,5.10
2019-02-18T10:00:34.810Z,5.10
2019-02-18T10:03:03.941Z,5.20
2019-02-18T10:05:33.091Z,5.20
2019-02-18T10:08:02.209Z,5.30
2019-02-18T10:10:31.320Z,5.30
2019-02-18T10:13:00.465Z,5.40
2019-02-18T10:15:29.613Z,5.50
2019-02-18T10:17:58.735Z,5.50
2019-02-18T10:20:27.866Z,5.60
2019-02-18T10:22:57.019Z,5.70
2019-02-18T10:25:26.165Z,5.70
2019-02-18T10:27:55.306Z,5.80
2019-02-18T10:30:24.420Z,5.80
2019-02-18T10:32:53.570Z,5.90
2019-02-18T10:35:22.688Z,5.90
2019-02-18T10:37:55.149Z,6.00
2019-02-18T10:40:22.740Z,6.10
2019-02-18T10:42:51.912Z,6.10
2019-02-18T10:45:21.039Z,6.20
2019-02-18T10:47:50.186Z,6.20
2019-02-18T10:50:19.314Z,6.30
2019-02-18T10:52:48.452Z,6.40
2019-02-18T10:55:17.956Z,6.40
2019-02-18T10:57:47.099Z,6.50
2019-02-18T11:00:17.520Z,6.60
2019-02-18T11:02:46.691Z,6.60
2019-02-18T11:05:15.797Z,6.70
2019-02-18T11:07:44.940Z,6.80
2019-02-18T11:10:18.004Z,6.80
2019-02-18T11:12:47.776Z,6.90
2019-02-18T11:15:17.014Z,6.90
2019-02-18T11:17:46.415Z,7.00
2019-02-18T11:20:15.579Z,7.10
2019-02-18T11:22:44.717Z,7.10
2019-02-18T11:25:15.350Z,7.20
2019-02-18T11:27:44.520Z,7.20
2019-02-18T11:30:18.287Z,7.30
2019-02-18T11:32:47.409Z,7.30
2019-02-18T11:35:16.546Z,7.40
2019-02-18T11:37:45.721Z,7.40
2019-02-18T11:40:22.321Z,7.40
2019-02-18T11:42:51.932Z,7.50
2019-02-18T11:45:21.091Z,7.50
2019-02-18T11:47:50.231Z,7.60
2019-02-18T11:50:19.424Z,7.60
2019-02-18T11:52:48.559Z,7.60
2019-02-18T11:55:17.694Z,7.70
2019-02-18T11:57:47.021Z,7.70
2019-02-18T12:00:16.974Z,7.70
2019-02-18T12:02:46.102Z,7.70
2019-02-18T12:05:15.276Z,7.80
2019-02-18T12:07:44.383Z,7.80
2019-02-18T12:10:14.390Z,7.80
2019-02-18T12:12:45.466Z,7.80
2019-02-18T12:15:17.507Z,7.90
2019-02-18T12:17:46.625Z,7.90
2019-02-18T12:20:16.705Z,7.90
2019-02-18T12:22:45.831Z,8.00
2019-02-18T12:25:14.994Z,8.00
2019-02-18T12:27:44.408Z,8.00
2019-02-18T12:30:20.008Z,8.10
2019-02-18T12:32:49.135Z,8.10
2019-02-18T12:35:18.259Z,8.10
2019-02-18T12:37:54.966Z,8.10
2019-02-18T12:40:18.284Z,8.20
2019-02-18T12:42:47.427Z,8.20
2019-02-18T12:45:16.547Z,8.20
2019-02-18T12:47:45.702Z,8.30
2019-02-18T12:50:14.834Z,8.30
2019-02-18T12:52:43.999Z,8.30
2019-02-18T12:55:13.774Z,8.30
2019-02-18T12:57:42.944Z,8.30
2019-02-18T13:00:14.276Z,8.40
2019-02-18T13:02:45.023Z,8.40
2019-02-18T13:05:14.536Z,8.40
2019-02-18T13:07:43.770Z,8.40
2019-02-18T13:10:12.890Z,8.40
2019-02-18T13:12:42.426Z,8.50
2019-02-18T13:15:17.594Z,8.50
2019-02-18T13:17:46.747Z,8.50
2019-02-18T13:20:15.883Z,8.50
2019-02-18T13:22:45.026Z,8.60
2019-02-18T13:25:15.887Z,8.50
2019-02-18T13:27:45.418Z,8.60
2019-02-18T13:30:19.180Z,8.60
2019-02-18T13:32:48.346Z,8.60
2019-02-18T13:35:17.490Z,8.60
2019-02-18T13:37:46.644Z,8.60
2019-02-18T13:40:17.162Z,8.60
2019-02-18T13:42:48.195Z,8.70
2019-02-18T13:45:17.339Z,8.70
2019-02-18T13:47:46.467Z,8.70
2019-02-18T13:50:15.654Z,8.70
2019-02-18T13:52:44.785Z,8.70
2019-02-18T13:55:16.768Z,8.70
2019-02-18T13:57:45.898Z,8.70
2019-02-18T14:00:21.014Z,8.70
2019-02-18T14:02:51.192Z,8.70
2019-02-18T14:05:21.935Z,8.80
2019-02-18T14:07:51.089Z,8.80
2019-02-18T14:10:21.143Z,8.80
2019-02-18T14:12:50.277Z,8.80
2019-02-18T14:15:19.823Z,8.80
2019-02-18T14:17:50.568Z,8.90
2019-02-18T14:20:19.876Z,8.80
2019-02-18T14:22:49.010Z,8.80
2019-02-18T14:25:18.361Z,8.90
2019-02-18T14:27:47.499Z,8.90
2019-02-18T14:30:18.452Z,8.90
2019-02-18T14:32:47.659Z,8.90
2019-02-18T14:35:17.835Z,8.90
2019-02-18T14:37:47.069Z,8.80
2019-02-18T14:40:18.379Z,8.90
2019-02-18T14:42:47.534Z,8.90
2019-02-18T14:45:17.046Z,8.90
2019-02-18T14:47:46.209Z,8.90
2019-02-18T14:50:18.540Z,8.90
2019-02-18T14:52:51.684Z,9.00
2019-02-18T14:55:20.487Z,8.90
2019-02-18T14:57:49.664Z,9.00
2019-02-18T15:00:23.676Z,9.00
2019-02-18T15:02:55.511Z,8.90
2019-02-18T15:05:26.601Z,9.00
2019-02-18T15:07:55.794Z,9.00
2019-02-18T15:10:24.946Z,9.00
2019-02-18T15:12:54.110Z,9.00
2019-02-18T15:15:23.229Z,9.00
2019-02-18T15:17:52.386Z,9.00
2019-02-18T15:20:21.907Z,9.00
2019-02-18T15:22:51.057Z,9.00
2019-02-18T15:25:20.262Z,9.00
2019-02-18T15:27:49.883Z,9.00
2019-02-18T15:30:19.147Z,9.00
2019-02-18T15:32:48.382Z,9.00
2019-02-18T15:35:17.938Z,9.00
2019-02-18T15:37:47.094Z,9.00
2019-02-18T15:40:17.862Z,9.00
2019-02-18T15:42:47.094Z,9.00
2019-02-18T15:45:16.250Z,9.00
2019-02-18T15:47:45.380Z,9.00
2019-02-18T15:50:15.479Z,9.00
2019-02-18T15:52:44.634Z,8.90
2019-02-18T15:55:13.856Z,8.90
2019-02-18T15:57:42.973Z,8.90
2019-02-18T16:00:26.732Z,8.90
2019-02-18T16:02:55.894Z,8.90
2019-02-18T16:05:25.011Z,8.80
2019-02-18T16:07:54.166Z,8.80
2019-02-18T16:10:23.338Z,8.80
2019-02-18T16:12:54.102Z,8.80
2019-02-18T16:15:23.691Z,8.70
2019-02-18T16:17:52.847Z,8.70
2019-02-18T16:20:22.013Z,8.70
2019-02-18T16:22:51.157Z,8.70
2019-02-18T16:25:23.729Z,8.60
2019-02-18T16:27:52.863Z,8.60
2019-02-18T16:30:22.296Z,8.60
2019-02-18T16:32:51.420Z,8.60
2019-02-18T16:35:21.916Z,8.50
2019-02-18T16:37:50.996Z,8.50
2019-02-18T16:40:21.796Z,8.50
2019-02-18T16:42:58.926Z,8.40
2019-02-18T16:45:21.808Z,8.40
2019-02-18T16:47:50.966Z,8.40
2019-02-18T16:50:20.112Z,8.30
2019-02-18T16:52:49.272Z,8.30
2019-02-18T16:55:18.407Z,8.20
2019-02-18T16:57:47.551Z,8.30
2019-02-18T17:00:28.940Z,8.20
2019-02-18T17:02:58.143Z,8.20
2019-02-18T17:05:27.328Z,8.20
2019-02-18T17:07:56.462Z,8.10
2019-02-18T17:10:25.625Z,8.10
2019-02-18T17:12:54.777Z,8.10
2019-02-18T17:15:23.917Z,8.00
2019-02-18T17:17:53.077Z,8.00
2019-02-18T17:20:22.217Z,8.00
2019-02-18T17:22:51.401Z,8.00
2019-02-18T17:25:20.526Z,7.90
2019-02-18T17:27:49.955Z,7.90
2019-02-18T17:30:19.139Z,7.90
2019-02-18T17:32:48.309Z,7.80
2019-02-18T17:35:17.421Z,7.80
2019-02-18T17:37:46.602Z,7.80
2019-02-18T17:40:15.950Z,7.80
2019-02-18T17:42:45.547Z,7.70
2019-02-18T17:45:17.417Z,7.70
2019-02-18T17:47:48.757Z,7.70
2019-02-18T17:50:18.363Z,7.70
2019-02-18T17:52:49.320Z,7.70
2019-02-18T17:55:19.920Z,7.60
2019-02-18T17:57:49.047Z,7.60
2019-02-18T18:00:24.945Z,7.60
2019-02-18T18:02:54.111Z,7.60
2019-02-18T18:05:23.257Z,7.60
2019-02-18T18:07:52.432Z,7.60
2019-02-18T18:10:21.959Z,7.60
2019-02-18T18:12:51.116Z,7.50
2019-02-18T18:15:21.112Z,7.50
2019-02-18T18:17:50.264Z,7.50
2019-02-18T18:20:19.488Z,7.40
2019-02-18T18:22:48.678Z,7.40
2019-02-18T18:25:17.808Z,7.40
2019-02-18T18:27:46.975Z,7.40
2019-02-18T18:30:18.471Z,7.30
2019-02-18T18:32:49.261Z,7.30
2019-02-18T18:35:18.398Z,7.20
2019-02-18T18:37:47.555Z,7.20
2019-02-18T18:40:21.291Z,7.20
2019-02-18T18:42:50.417Z,7.10
2019-02-18T18:45:21.269Z,7.20
2019-02-18T18:47:50.406Z,7.10
2019-02-18T18:50:23.438Z,7.00
2019-02-18T18:52:52.616Z,7.00
2019-02-18T18:55:21.986Z,7.00
2019-02-18T18:57:51.192Z,6.90
2019-02-18T19:00:26.906Z,6.90
2019-02-18T19:02:58.968Z,6.90
2019-02-18T19:05:28.344Z,6.90
2019-02-18T19:07:57.500Z,6.80
2019-02-18T19:10:28.353Z,6.80
2019-02-18T19:12:57.569Z,6.80
2019-02-18T19:15:27.115Z,6.80
2019-02-18T19:17:58.510Z,6.70
2019-02-18T19:20:29.320Z,6.70
2019-02-18T19:22:58.461Z,6.70
2019-02-18T19:25:27.645Z,6.60
2019-02-18T19:27:56.840Z,6.60
2019-02-18T19:30:32.787Z,6.60
2019-02-18T19:33:01.985Z,6.60
2019-02-18T19:35:31.322Z,6.50
2019-02-18T19:38:00.459Z,6.50
2019-02-18T19:40:29.692Z,6.50
2019-02-18T19:42:58.884Z,6.40
2019-02-18T19:45:28.053Z,6.40
2019-02-18T19:47:57.202Z,6.40
2019-02-18T19:50:26.514Z,6.40
2019-02-18T19:52:55.680Z,6.30
2019-02-18T19:55:25.508Z,6.30
2019-02-18T19:57:54.787Z,6.20
2019-02-18T20:00:24.013Z,6.20
2019-02-18T20:02:53.203Z,6.20
2019-02-18T20:05:22.441Z,6.20
2019-02-18T20:07:51.611Z,6.20
2019-02-18T20:10:20.792Z,6.10
2019-02-18T20:12:49.971Z,6.10
2019-02-18T20:15:19.115Z,6.10
2019-02-18T20:17:48.294Z,6.10
2019-02-18T20:20:18.166Z,6.10
2019-02-18T20:22:47.347Z,6.00
2019-02-18T20:25:16.530Z,6.10
2019-02-18T20:27:46.086Z,6.00
2019-02-18T20:30:18.715Z,6.00
2019-02-18T20:32:47.870Z,6.00
2019-02-18T20:35:17.012Z,6.00
2019-02-18T20:37:46.199Z,5.90
2019-02-18T20:40:15.339Z,5.90
2019-02-18T20:42:44.515Z,5.90
2019-02-18T20:45:14.652Z,5.90
2019-02-18T20:47:43.851Z,5.80
2019-02-18T20:50:14.899Z,5.80
2019-02-18T20:52:45.703Z,5.80
2019-02-18T20:55:17.853Z,5.80
2019-02-18T20:57:56.494Z,5.80
2019-02-18T21:00:30.464Z,5.70
2019-02-18T21:03:01.377Z,5.70
2019-02-18T21:05:30.704Z,5.70
2019-02-18T21:08:00.022Z,5.60
2019-02-18T21:10:29.310Z,5.70
2019-02-18T21:12:58.670Z,5.60
2019-02-18T21:15:27.873Z,5.70
2019-02-18T21:17:57.031Z,5.60
2019-02-18T21:20:26.176Z,5.60
2019-02-18T21:22:58.043Z,5.60
2019-02-18T21:25:27.285Z,5.60
2019-02-18T21:27:56.471Z,5.60
2019-02-18T21:30:25.628Z,5.50
2019-02-18T21:32:54.772Z,5.50
2019-02-18T21:35:24.326Z,5.50
2019-02-18T21:37:53.463Z,5.50
2019-02-18T21:40:22.658Z,5.40
2019-02-18T21:42:51.829Z,5.40
2019-02-18T21:45:21.010Z,5.40
2019-02-18T21:47:50.220Z,5.40
2019-02-18T21:50:20.021Z,5.40
2019-02-18T21:52:49.175Z,5.30
2019-02-18T21:55:18.333Z,5.30
2019-02-18T21:57:47.462Z,5.30
2019-02-18T22:00:24.801Z,5.30
2019-02-18T22:02:53.988Z,5.30
2019-02-18T22:05:23.095Z,5.30
2019-02-18T22:07:52.258Z,5.20
2019-02-18T22:10:21.421Z,5.20
2019-02-18T22:12:50.554Z,5.20
2019-02-18T22:15:19.762Z,5.20
2019-02-18T22:18:09.011Z,5.20
2019-02-18T22:20:27.346Z,5.20
2019-02-18T22:22:56.505Z,5.10
2019-02-18T22:25:27.263Z,5.10
2019-02-18T22:27:56.418Z,5.10
2019-02-18T22:30:25.554Z,5.10
2019-02-18T22:32:55.117Z,5.10
2019-02-18T22:35:24.263Z,5.10
2019-02-18T22:37:53.400Z,5.10
2019-02-18T22:40:23.489Z,5.00
2019-02-18T22:42:53.496Z,5.00
2019-02-18T22:45:22.961Z,5.00
2019-02-18T22:47:52.112Z,5.00
2019-02-18T22:50:21.243Z,4.90
2019-02-18T22:52:50.403Z,4.90
2019-02-18T22:55:19.531Z,5.00
2019-02-18T22:57:48.695Z,4.90
2019-02-18T23:00:53.413Z,4.90
2019-02-18T23:03:22.993Z,4.90
2019-02-18T23:05:52.143Z,4.90
2019-02-18T23:08:21.293Z,4.90
2019-02-18T23:10:50.424Z,4.80
2019-02-18T23:13:20.047Z,4.80
2019-02-18T23:15:49.176Z,4.80
2019-02-18T23:18:21.148Z,4.80
2019-02-18T23:20:50.329Z,4.80
2019-02-18T23:23:19.460Z,4.80
2019-02-18T23:25:48.626Z,4.70
2019-02-18T23:28:21.303Z,4.70
2019-02-18T23:30:50.462Z,4.70
2019-02-18T23:33:19.604Z,4.70
2019-02-18T23:35:48.761Z,4.70
2019-02-18T23:38:17.896Z,4.70
2019-02-18T23:40:47.054Z,4.70
2019-02-18T23:43:16.184Z,4.70
2019-02-18T23:45:45.328Z,4.70
2019-02-18T23:48:14.517Z,4.60
2019-02-18T23:50:43.679Z,4.60
2019-02-18T23:53:12.808Z,4.70
2019-02-18T23:55:41.963Z,4.70
2019-02-18T23:58:11.101Z,4.70
